createdAt,value
2023-02-13T00:00:17.982Z,13.83
2023-02-13T00:02:45.101Z,13.33
2023-02-13T00:05:12.261Z,17.03
2023-02-13T00:07:38.819Z,14.90
2023-02-13T00:10:06.072Z,13.17
2023-02-13T00:12:32.682Z,14.67
2023-02-13T00:15:00.284Z,14.77
2023-02-13T00:17:27.313Z,13.03
2023-02-13T00:19:54.049Z,13.63
2023-02-13T00:22:20.883Z,11.27
2023-02-13T00:24:47.548Z,13.77
2023-02-13T00:27:14.161Z,13.30
2023-02-13T00:29:40.856Z,15.83
2023-02-13T00:32:07.774Z,14.83
2023-02-13T00:34:34.644Z,14.50
2023-02-13T00:37:01.211Z,12.50
2023-02-13T00:39:27.943Z,12.17
2023-02-13T00:41:54.592Z,13.13
2023-02-13T00:44:21.212Z,12.37
2023-02-13T00:46:47.905Z,13.63
2023-02-13T00:49:14.581Z,13.10
2023-02-13T00:51:41.208Z,13.67
2023-02-13T00:54:07.790Z,12.63
2023-02-13T00:56:34.392Z,14.30
2023-02-13T00:59:01.050Z,14.57
2023-02-13T01:01:27.721Z,13.80
2023-02-13T01:03:54.385Z,14.80
2023-02-13T01:06:21.016Z,12.07
2023-02-13T01:08:47.572Z,12.73
2023-02-13T01:11:14.204Z,13.37
2023-02-13T01:13:40.908Z,11.23
2023-02-13T01:16:07.775Z,14.23
2023-02-13T01:18:34.404Z,13.47
2023-02-13T01:21:04.038Z,13.57
2023-02-13T01:23:32.634Z,14.50
2023-02-13T01:25:59.756Z,13.27
2023-02-13T01:28:26.896Z,12.60
2023-02-13T01:30:55.586Z,14.07
2023-02-13T01:33:24.084Z,15.10
2023-02-13T01:35:51.340Z,14.00
2023-02-13T01:38:18.326Z,14.37
2023-02-13T01:40:50.126Z,13.20
2023-02-13T01:43:17.018Z,13.50
2023-02-13T01:45:47.028Z,13.27
2023-02-13T01:48:18.290Z,14.60
2023-02-13T01:51:11.746Z,14.50
2023-02-13T01:53:45.965Z,13.43
2023-02-13T01:56:24.076Z,12.63
2023-02-13T01:58:54.473Z,15.50
2023-02-13T02:01:23.393Z,11.43
2023-02-13T02:03:59.813Z,15.57
2023-02-13T02:06:35.928Z,13.33
2023-02-13T02:09:08.136Z,13.00
2023-02-13T02:11:41.584Z,13.47
2023-02-13T02:14:08.640Z,15.40
2023-02-13T02:16:36.043Z,14.67
2023-02-13T02:19:05.888Z,16.23
2023-02-13T02:22:00.883Z,14.93
2023-02-13T02:24:49.619Z,11.50
2023-02-13T02:27:51.685Z,13.87
2023-02-13T02:30:46.049Z,11.70
2023-02-13T02:33:12.683Z,11.07
2023-02-13T02:36:14.279Z,12.10
2023-02-13T02:38:49.837Z,13.30
2023-02-13T02:41:42.097Z,12.53
2023-02-13T02:44:36.528Z,12.97
2023-02-13T02:47:27.609Z,12.37
2023-02-13T02:50:12.324Z,13.30
2023-02-13T02:53:09.514Z,18.40
2023-02-13T02:55:39.944Z,16.57
2023-02-13T02:58:47.566Z,12.27
2023-02-13T03:01:36.941Z,13.83
2023-02-13T03:04:23.418Z,15.53
2023-02-13T03:06:56.535Z,13.80
2023-02-13T03:09:50.076Z,13.60
2023-02-13T03:12:41.472Z,12.30
2023-02-13T03:15:09.843Z,12.23
2023-02-13T03:17:55.817Z,11.37
2023-02-13T03:21:13.570Z,13.67
2023-02-13T03:24:07.921Z,13.30
2023-02-13T03:27:02.201Z,12.40
2023-02-13T03:29:59.159Z,11.53
2023-02-13T03:32:51.651Z,14.07
2023-02-13T03:35:58.145Z,10.87
2023-02-13T03:38:32.630Z,11.40
2023-02-13T03:41:19.937Z,12.13
2023-02-13T03:43:49.300Z,14.63
2023-02-13T03:46:17.832Z,12.03
2023-02-13T03:49:18.667Z,11.10
2023-02-13T03:52:03.584Z,11.43
2023-02-13T03:54:56.153Z,12.10
2023-02-13T03:57:44.159Z,8.97
2023-02-13T04:00:13.794Z,10.13
2023-02-13T04:02:50.275Z,12.03
2023-02-13T04:05:21.490Z,8.97
2023-02-13T04:07:49.228Z,12.00
2023-02-13T04:10:17.281Z,10.43
2023-02-13T04:12:49.903Z,11.40
2023-02-13T04:15:21.803Z,12.33
2023-02-13T04:18:04.556Z,12.70
2023-02-13T04:20:34.212Z,11.03
2023-02-13T04:23:08.554Z,14.33
2023-02-13T04:25:37.822Z,13.87
2023-02-13T04:28:05.056Z,11.67
2023-02-13T04:30:31.806Z,10.07
2023-02-13T04:32:58.759Z,12.23
2023-02-13T04:35:25.570Z,12.70
2023-02-13T04:37:52.648Z,11.57
2023-02-13T04:40:19.372Z,10.80
2023-02-13T04:42:48.925Z,10.93
2023-02-13T04:45:16.202Z,11.73
2023-02-13T04:47:43.515Z,10.27
2023-02-13T04:50:10.460Z,12.00
2023-02-13T04:52:37.182Z,11.13
2023-02-13T04:55:04.122Z,10.80
2023-02-13T04:57:30.756Z,10.57
2023-02-13T04:59:57.395Z,10.37
2023-02-13T05:02:24.069Z,10.73
2023-02-13T05:04:50.757Z,11.90
2023-02-13T05:07:17.457Z,12.27
2023-02-13T05:09:44.057Z,11.70
2023-02-13T05:12:10.698Z,11.60
2023-02-13T05:14:37.393Z,8.83
2023-02-13T05:17:04.003Z,10.57
2023-02-13T05:19:30.620Z,9.50
2023-02-13T05:22:16.170Z,10.67
2023-02-13T05:24:42.807Z,9.40
2023-02-13T05:27:09.445Z,11.17
2023-02-13T05:29:36.062Z,11.53
2023-02-13T05:32:02.826Z,12.17
2023-02-13T05:34:29.883Z,12.00
2023-02-13T05:36:56.667Z,11.07
2023-02-13T05:39:23.462Z,11.90
2023-02-13T05:41:50.608Z,12.50
2023-02-13T05:44:17.575Z,10.07
2023-02-13T05:46:45.051Z,8.83
2023-02-13T05:49:13.885Z,10.63
2023-02-13T05:51:40.718Z,9.80
2023-02-13T05:54:07.291Z,8.90
2023-02-13T05:56:33.898Z,10.10
2023-02-13T05:59:00.589Z,12.80
2023-02-13T06:01:27.217Z,11.43
2023-02-13T06:03:53.911Z,10.97
2023-02-13T06:06:21.385Z,10.10
2023-02-13T06:08:48.186Z,11.63
2023-02-13T06:11:14.774Z,10.60
2023-02-13T06:13:41.394Z,12.10
2023-02-13T06:16:09.674Z,13.70
2023-02-13T06:18:36.704Z,11.17
2023-02-13T06:21:03.803Z,14.40
2023-02-13T06:23:30.459Z,12.03
2023-02-13T06:25:57.328Z,16.77
2023-02-13T06:28:23.980Z,14.90
2023-02-13T06:30:50.824Z,11.97
2023-02-13T06:33:17.537Z,12.07
2023-02-13T06:35:44.144Z,12.30
2023-02-13T06:38:10.766Z,11.83
2023-02-13T06:40:37.325Z,11.50
2023-02-13T06:43:04.032Z,10.03
2023-02-13T06:45:30.726Z,10.93
2023-02-13T06:47:57.483Z,13.30
2023-02-13T06:50:24.347Z,12.63
2023-02-13T06:52:52.398Z,12.13
2023-02-13T06:55:19.193Z,10.17
2023-02-13T06:57:46.383Z,12.87
2023-02-13T07:00:15.015Z,10.83
2023-02-13T07:02:43.327Z,12.80
2023-02-13T07:05:11.581Z,10.83
2023-02-13T07:07:40.513Z,12.17
2023-02-13T07:10:10.794Z,11.87
2023-02-13T07:12:37.601Z,13.53
2023-02-13T07:15:05.339Z,13.30
2023-02-13T07:17:32.404Z,9.53
2023-02-13T07:19:59.077Z,10.00
2023-02-13T07:22:25.731Z,13.97
2023-02-13T07:24:52.339Z,12.53
2023-02-13T07:27:19.019Z,11.43
2023-02-13T07:29:45.568Z,11.03
2023-02-13T07:32:12.291Z,11.93
2023-02-13T07:34:41.195Z,12.23
2023-02-13T07:37:13.168Z,10.10
2023-02-13T07:39:39.871Z,10.17
2023-02-13T07:42:06.625Z,11.70
2023-02-13T07:44:33.510Z,8.53
2023-02-13T07:47:01.292Z,10.93
2023-02-13T07:49:28.063Z,11.67
2023-02-13T07:51:58.052Z,9.30
2023-02-13T07:54:24.955Z,10.10
2023-02-13T07:56:51.670Z,10.10
2023-02-13T07:59:18.330Z,9.60
2023-02-13T08:01:44.984Z,9.40
2023-02-13T08:04:11.704Z,10.77
2023-02-13T08:06:42.209Z,12.40
2023-02-13T08:09:38.861Z,11.30
2023-02-13T08:12:08.714Z,11.43
2023-02-13T08:14:35.518Z,10.17
2023-02-13T08:17:02.284Z,11.37
2023-02-13T08:19:29.467Z,12.33
2023-02-13T08:21:56.515Z,11.70
2023-02-13T08:24:23.241Z,12.00
2023-02-13T08:26:49.874Z,12.03
2023-02-13T08:29:16.851Z,12.23
2023-02-13T08:31:43.889Z,13.10
2023-02-13T08:34:10.947Z,10.77
2023-02-13T08:36:37.639Z,11.90
2023-02-13T08:39:04.426Z,12.50
2023-02-13T08:41:31.060Z,11.87
2023-02-13T08:43:57.712Z,12.03
2023-02-13T08:46:24.385Z,11.03
2023-02-13T08:48:51.051Z,13.37
2023-02-13T08:51:17.641Z,13.33
2023-02-13T08:53:44.336Z,12.27
2023-02-13T08:56:11.534Z,11.43
2023-02-13T08:58:38.578Z,12.50
2023-02-13T09:01:07.074Z,10.13
2023-02-13T09:03:34.697Z,13.77
2023-02-13T09:06:02.531Z,11.60
2023-02-13T09:08:29.173Z,10.73
2023-02-13T09:11:01.417Z,12.17
2023-02-13T09:13:33.661Z,12.20
2023-02-13T09:16:02.471Z,11.97
2023-02-13T09:18:29.237Z,9.90
2023-02-13T09:21:07.149Z,10.43
2023-02-13T09:23:35.971Z,10.43
2023-02-13T09:26:04.468Z,11.33
2023-02-13T09:28:32.997Z,11.07
2023-02-13T09:30:59.727Z,10.17
2023-02-13T09:33:26.890Z,13.23
2023-02-13T09:35:53.471Z,10.33
2023-02-13T09:38:20.103Z,10.47
2023-02-13T09:40:56.276Z,11.17
2023-02-13T09:43:38.485Z,12.37
2023-02-13T09:46:14.644Z,13.10
2023-02-13T09:48:45.539Z,12.47
2023-02-13T09:51:18.349Z,11.83
2023-02-13T09:53:58.032Z,9.40
2023-02-13T09:56:49.558Z,11.87
2023-02-13T09:59:42.163Z,12.37
2023-02-13T10:02:47.637Z,10.33
2023-02-13T10:05:32.049Z,11.50
2023-02-13T10:08:14.445Z,13.40
2023-02-13T10:10:57.855Z,12.13
2023-02-13T10:13:47.653Z,10.80
2023-02-13T10:16:27.390Z,13.00
2023-02-13T10:19:00.475Z,10.90
2023-02-13T10:21:34.240Z,10.37
2023-02-13T10:24:12.631Z,13.43
2023-02-13T10:26:43.452Z,13.53
2023-02-13T10:29:33.112Z,11.50
2023-02-13T10:32:04.210Z,11.33
2023-02-13T10:34:38.722Z,10.87
2023-02-13T10:37:13.989Z,12.00
2023-02-13T10:39:42.184Z,9.27
2023-02-13T10:42:22.996Z,9.07
2023-02-13T10:44:58.626Z,10.00
2023-02-13T10:47:37.496Z,11.33
2023-02-13T10:50:32.134Z,11.13
2023-02-13T10:53:08.196Z,12.97
2023-02-13T10:55:54.492Z,11.77
2023-02-13T10:58:26.063Z,11.97
2023-02-13T11:01:40.260Z,10.77
2023-02-13T11:04:12.778Z,12.43
2023-02-13T11:06:49.284Z,10.80
2023-02-13T11:09:15.854Z,11.10
2023-02-13T11:11:43.949Z,10.10
2023-02-13T11:14:16.712Z,11.60
2023-02-13T11:17:18.484Z,11.07
2023-02-13T11:19:54.181Z,9.00
2023-02-13T11:22:42.777Z,8.37
2023-02-13T11:25:26.255Z,10.07
2023-02-13T11:28:09.233Z,8.77
2023-02-13T11:30:37.784Z,9.23
2023-02-13T11:33:17.678Z,9.03
2023-02-13T11:35:46.601Z,10.50
2023-02-13T11:38:15.789Z,7.97
2023-02-13T11:41:05.638Z,9.87
2023-02-13T11:43:48.537Z,6.67
2023-02-13T11:46:20.465Z,8.90
2023-02-13T11:49:21.344Z,8.17
2023-02-13T11:51:54.180Z,6.57
2023-02-13T11:54:44.307Z,7.07
2023-02-13T11:57:19.914Z,7.37
2023-02-13T11:59:49.687Z,7.87
2023-02-13T12:02:19.572Z,10.00
2023-02-13T12:04:47.657Z,8.47
2023-02-13T12:07:29.487Z,6.33
2023-02-13T12:10:24.067Z,7.83
2023-02-13T12:12:55.188Z,8.83
2023-02-13T12:15:30.574Z,8.20
2023-02-13T12:18:03.458Z,8.33
2023-02-13T12:20:40.125Z,8.03
2023-02-13T12:23:18.768Z,8.17
2023-02-13T12:26:00.295Z,8.80
2023-02-13T12:28:42.433Z,8.23
2023-02-13T12:31:27.965Z,7.70
2023-02-13T12:34:06.700Z,6.83
2023-02-13T12:36:39.544Z,6.80
2023-02-13T12:39:09.591Z,7.70
2023-02-13T12:41:48.019Z,6.80
2023-02-13T12:44:43.947Z,7.73
2023-02-13T12:47:23.936Z,7.73
2023-02-13T12:50:18.098Z,8.40
2023-02-13T12:52:50.766Z,7.27
2023-02-13T12:55:53.951Z,8.50
2023-02-13T12:58:38.539Z,8.00
2023-02-13T13:01:17.786Z,6.67
2023-02-13T13:04:34.954Z,7.73
2023-02-13T13:07:15.066Z,6.87
2023-02-13T13:10:04.356Z,7.27
2023-02-13T13:13:06.449Z,5.83
2023-02-13T13:15:44.393Z,6.13
2023-02-13T13:18:22.847Z,6.70
2023-02-13T13:21:02.071Z,7.27
2023-02-13T13:23:37.870Z,7.37
2023-02-13T13:26:23.339Z,6.43
2023-02-13T13:28:54.696Z,7.17
2023-02-13T13:31:26.194Z,6.93
2023-02-13T13:33:56.286Z,6.20
2023-02-13T13:36:25.435Z,7.23
2023-02-13T13:38:52.124Z,6.47
2023-02-13T13:42:02.837Z,6.17
2023-02-13T13:45:00.885Z,6.93
2023-02-13T13:47:39.252Z,7.37
2023-02-13T13:50:17.478Z,9.13
2023-02-13T13:53:11.913Z,7.03
2023-02-13T13:55:50.298Z,6.00
2023-02-13T13:58:46.865Z,6.97
2023-02-13T14:01:16.562Z,6.63
2023-02-13T14:03:45.919Z,7.37
2023-02-13T14:06:15.802Z,6.37
2023-02-13T14:08:44.308Z,6.43
2023-02-13T14:11:35.649Z,6.60
2023-02-13T14:14:03.280Z,5.83
2023-02-13T14:16:57.845Z,6.73
2023-02-13T14:19:32.591Z,7.37
2023-02-13T14:22:20.771Z,6.47
2023-02-13T14:24:55.876Z,7.43
2023-02-13T14:27:25.206Z,6.13
2023-02-13T14:29:52.122Z,6.27
2023-02-13T14:32:30.877Z,7.43
2023-02-13T14:35:02.385Z,6.97
2023-02-13T14:37:40.131Z,6.83
2023-02-13T14:40:44.077Z,6.80
2023-02-13T14:43:22.578Z,7.60
2023-02-13T14:45:55.701Z,6.27
2023-02-13T14:48:33.609Z,4.87
2023-02-13T14:51:00.913Z,6.27
2023-02-13T14:53:34.460Z,6.73
2023-02-13T14:56:10.978Z,6.87
2023-02-13T14:58:58.533Z,6.87
2023-02-13T15:01:34.527Z,6.13
2023-02-13T15:04:12.971Z,7.27
2023-02-13T15:06:42.729Z,6.60
2023-02-13T15:09:39.023Z,6.77
2023-02-13T15:12:27.808Z,6.53
2023-02-13T15:14:54.644Z,7.33
2023-02-13T15:17:30.194Z,5.60
2023-02-13T15:20:04.965Z,18.70
2023-02-13T15:22:35.643Z,9.50
2023-02-13T15:25:03.086Z,7.23
2023-02-13T15:27:32.627Z,10.40
2023-02-13T15:30:05.070Z,8.10
2023-02-13T15:32:37.036Z,7.03
2023-02-13T15:35:22.528Z,9.97
2023-02-13T15:37:49.262Z,11.57
2023-02-13T15:40:22.356Z,10.10
2023-02-13T15:42:49.251Z,9.37
2023-02-13T15:45:18.436Z,16.77
2023-02-13T15:47:46.965Z,9.73
2023-02-13T15:50:35.987Z,11.47
2023-02-13T15:53:10.027Z,7.43
2023-02-13T15:55:38.525Z,7.57
2023-02-13T15:58:05.592Z,8.10
2023-02-13T16:00:39.277Z,17.07
2023-02-13T16:03:12.908Z,9.77
2023-02-13T16:05:41.552Z,8.80
2023-02-13T16:08:29.118Z,9.37
2023-02-13T16:11:17.302Z,13.77
2023-02-13T16:14:13.867Z,19.60
2023-02-13T16:16:54.698Z,12.00
2023-02-13T16:19:44.999Z,12.97
2023-02-13T16:22:33.282Z,9.67
2023-02-13T16:25:23.028Z,10.00
2023-02-13T16:27:52.578Z,7.87
2023-02-13T16:30:33.123Z,10.90
2023-02-13T16:33:16.894Z,10.03
2023-02-13T16:35:50.594Z,9.93
2023-02-13T16:38:41.094Z,8.97
2023-02-13T16:41:19.625Z,9.57
2023-02-13T16:44:03.286Z,6.70
2023-02-13T16:46:32.896Z,9.43
2023-02-13T16:48:59.579Z,9.40
2023-02-13T16:51:43.501Z,7.57
2023-02-13T16:54:36.308Z,8.90
2023-02-13T16:57:18.205Z,8.73
2023-02-13T16:59:47.387Z,10.60
2023-02-13T17:02:19.871Z,13.77
2023-02-13T17:04:49.596Z,17.83
2023-02-13T17:07:27.999Z,18.13
2023-02-13T17:10:03.453Z,22.73
2023-02-13T17:12:31.915Z,16.03
2023-02-13T17:14:59.857Z,10.87
2023-02-13T17:17:30.418Z,10.50
2023-02-13T17:19:57.772Z,9.07
2023-02-13T17:22:30.375Z,11.30
2023-02-13T17:24:58.578Z,11.03
2023-02-13T17:27:25.156Z,11.57
2023-02-13T17:29:52.084Z,14.93
2023-02-13T17:32:22.282Z,12.73
2023-02-13T17:34:49.656Z,15.07
2023-02-13T17:37:27.871Z,14.67
2023-02-13T17:39:55.601Z,9.43
2023-02-13T17:42:25.015Z,10.00
2023-02-13T17:44:53.990Z,13.60
2023-02-13T17:47:23.225Z,13.87
2023-02-13T17:49:50.565Z,10.57
2023-02-13T17:52:24.221Z,8.67
2023-02-13T17:54:51.479Z,10.50
2023-02-13T17:57:19.450Z,10.03
2023-02-13T17:59:47.585Z,7.53
2023-02-13T18:02:17.585Z,7.80
2023-02-13T18:04:45.308Z,9.57
2023-02-13T18:07:13.871Z,8.47
2023-02-13T18:09:40.850Z,9.90
2023-02-13T18:12:16.449Z,12.20
2023-02-13T18:14:43.163Z,15.00
2023-02-13T18:17:09.970Z,13.27
2023-02-13T18:19:37.455Z,12.00
2023-02-13T18:22:05.458Z,9.17
2023-02-13T18:24:33.089Z,9.37
2023-02-13T18:27:00.022Z,10.17
2023-02-13T18:29:26.981Z,11.00
2023-02-13T18:31:54.532Z,10.67
2023-02-13T18:34:22.416Z,9.93
2023-02-13T18:36:49.548Z,9.03
2023-02-13T18:39:16.798Z,10.27
2023-02-13T18:41:43.902Z,9.33
2023-02-13T18:44:17.334Z,9.20
2023-02-13T18:46:50.198Z,8.60
2023-02-13T18:49:16.985Z,8.97
2023-02-13T18:51:44.542Z,9.67
2023-02-13T18:54:11.536Z,8.73
2023-02-13T18:56:38.172Z,7.83
2023-02-13T18:59:05.069Z,8.20
2023-02-13T19:01:31.795Z,9.93
2023-02-13T19:03:58.450Z,8.90
2023-02-13T19:06:26.110Z,9.73
2023-02-13T19:08:52.777Z,8.57
2023-02-13T19:11:23.374Z,10.27
2023-02-13T19:13:55.109Z,8.63
2023-02-13T19:16:22.128Z,9.23
2023-02-13T19:18:54.639Z,11.07
2023-02-13T19:21:24.095Z,8.17
2023-02-13T19:23:51.690Z,8.83
2023-02-13T19:26:20.906Z,8.07
2023-02-13T19:28:48.187Z,10.57
2023-02-13T19:31:18.779Z,9.17
2023-02-13T19:33:46.260Z,7.27
2023-02-13T19:36:15.541Z,8.50
2023-02-13T19:38:44.985Z,8.10
2023-02-13T19:41:17.339Z,7.10
2023-02-13T19:43:50.975Z,8.07
2023-02-13T19:46:20.503Z,7.00
2023-02-13T19:48:47.260Z,7.60
2023-02-13T19:51:16.412Z,7.43
2023-02-13T19:53:43.375Z,8.13
2023-02-13T19:56:10.360Z,9.23
2023-02-13T19:58:38.409Z,10.03
2023-02-13T20:01:08.186Z,7.97
2023-02-13T20:03:35.029Z,9.03
2023-02-13T20:06:12.926Z,7.67
2023-02-13T20:08:42.563Z,10.73
2023-02-13T20:11:11.042Z,7.57
2023-02-13T20:13:38.477Z,6.97
2023-02-13T20:16:06.618Z,7.00
2023-02-13T20:18:35.395Z,6.00
2023-02-13T20:21:09.466Z,5.60
2023-02-13T20:23:36.166Z,6.00
2023-02-13T20:26:05.054Z,7.00
2023-02-13T20:28:31.834Z,6.73
2023-02-13T20:30:59.167Z,6.20
2023-02-13T20:33:27.175Z,5.47
2023-02-13T20:35:53.768Z,5.90
2023-02-13T20:38:20.354Z,6.77
2023-02-13T20:40:46.908Z,8.37
2023-02-13T20:43:13.486Z,8.80
2023-02-13T20:45:40.105Z,7.47
2023-02-13T20:48:06.794Z,9.37
2023-02-13T20:50:33.405Z,11.37
2023-02-13T20:53:00.052Z,9.27
2023-02-13T20:55:26.697Z,10.40
2023-02-13T20:57:53.350Z,10.37
2023-02-13T21:00:20.252Z,10.03
2023-02-13T21:02:46.912Z,7.20
2023-02-13T21:05:13.570Z,7.63
2023-02-13T21:07:40.253Z,7.27
2023-02-13T21:10:08.044Z,9.43
2023-02-13T21:12:35.020Z,6.80
2023-02-13T21:15:01.862Z,5.50
2023-02-13T21:17:28.449Z,7.20
2023-02-13T21:19:55.110Z,8.90
2023-02-13T21:22:21.721Z,9.97
2023-02-13T21:24:49.711Z,7.10
2023-02-13T21:27:16.446Z,7.37
2023-02-13T21:29:43.071Z,7.10
2023-02-13T21:32:09.810Z,6.90
2023-02-13T21:34:36.604Z,6.80
2023-02-13T21:37:03.334Z,6.17
2023-02-13T21:39:29.998Z,8.03
2023-02-13T21:41:56.688Z,6.10
2023-02-13T21:44:23.513Z,6.27
2023-02-13T21:46:50.594Z,6.37
2023-02-13T21:49:18.769Z,6.73
2023-02-13T21:51:46.042Z,7.97
2023-02-13T21:54:13.613Z,5.90
2023-02-13T21:56:42.001Z,5.73
2023-02-13T21:59:09.200Z,6.37
2023-02-13T22:01:37.786Z,5.30
2023-02-13T22:04:07.666Z,6.13
2023-02-13T22:06:36.638Z,7.03
2023-02-13T22:09:06.635Z,5.90
2023-02-13T22:11:34.495Z,5.83
2023-02-13T22:14:03.645Z,5.97
2023-02-13T22:16:31.790Z,6.17
2023-02-13T22:18:59.454Z,6.13
2023-02-13T22:21:28.720Z,7.67
2023-02-13T22:23:55.434Z,6.97
2023-02-13T22:26:27.461Z,7.37
2023-02-13T22:28:56.021Z,10.20
2023-02-13T22:31:25.419Z,9.63
2023-02-13T22:34:02.971Z,8.27
2023-02-13T22:36:31.697Z,6.83
2023-02-13T22:38:58.364Z,9.03
2023-02-13T22:41:26.757Z,8.20
2023-02-13T22:43:53.713Z,6.90
2023-02-13T22:46:33.335Z,6.13
2023-02-13T22:49:00.214Z,8.00
2023-02-13T22:51:34.230Z,7.67
2023-02-13T22:54:04.966Z,6.67
2023-02-13T22:56:33.701Z,7.20
2023-02-13T22:59:00.515Z,7.43
2023-02-13T23:01:28.973Z,6.43
2023-02-13T23:03:56.715Z,8.23
2023-02-13T23:06:24.830Z,6.93
2023-02-13T23:08:55.137Z,6.13
2023-02-13T23:11:43.380Z,5.47
2023-02-13T23:14:11.157Z,8.67
2023-02-13T23:16:58.204Z,8.73
2023-02-13T23:19:25.588Z,8.40
2023-02-13T23:21:52.289Z,7.37
2023-02-13T23:24:18.950Z,10.43
2023-02-13T23:26:45.633Z,11.47
2023-02-13T23:29:12.208Z,8.07
2023-02-13T23:31:38.925Z,7.20
2023-02-13T23:34:05.686Z,8.03
2023-02-13T23:36:32.374Z,9.43
2023-02-13T23:38:58.956Z,7.60
2023-02-13T23:41:25.589Z,6.43
2023-02-13T23:43:52.135Z,8.43
2023-02-13T23:46:18.815Z,9.30
2023-02-13T23:48:46.160Z,8.47
2023-02-13T23:51:13.093Z,8.57
2023-02-13T23:53:39.878Z,6.20
2023-02-13T23:56:10.269Z,7.27
2023-02-13T23:58:36.835Z,7.07
